CO02 weather

Harrington Ranch Airport
Bennet, Colorado, United States

Public forecast

Using degrees Fahrenheit for public forecast. Weather courtesy of forecast.io.

METAR (pilot weather report)

Closest report is Front Range Airport, 9.4 nm (17.4 km) N. Retrieved 2019/04/19 17:55 UTC (26 minutes ago):

KFTG 191755Z 00000KT 10SM FEW220 19/M01 A3017

TAF (pilot weather forecast)

Closest forecast is Buckley Air Force Base, 11.6 nm (21.5 km) WNW. Retrieved 2019/04/19 17:04 UTC (1 hour ago):

TAF KBKF 191702Z 1917/2023 VRB06KT 9999 FEW100 QNH3007INS BECMG 2002/2003 20009KT 9999 FEW200 QNH2988INS TX22/1921Z TN03/2012Z